Accueil
METAR-TAF:

METAR-TAF

Aéroports :

Uíge, Angola

latitude: 7-36-10S, longitude: 15-1-40E, altitude: 829 m

Observation

Le bulletin a été fait il y a 8 heures et 41 minutes, à 16:00 UTC
Vent 6 kt de sud/sud-ouest
Température 29°C
Humidité 62%
Pression 1012 hPa
Visibilité 10 km ou plus
Quelques nuages à une hauteur de 2500 ft

METAR: FNUG 201600Z 21006KT 9999 FEW025 29/21 Q1012

Heure: 01:41 (00:41 UTC)


TAF: absent

Observations et prévisions météorologiques de plus de 4000 aéroports (messages METAR et TAF).

Les stations disponibles sont représentées par des disques jaunes et rouges sur la carte.

Passer la souris dessus pour voir le nom de la station.

Cliquer dessus pour voir les observations et prévisions météorologiques.

Pour changer de carte: cliquez sur les boutons verts avec une croix noire pour zoomer, sur le bouton vert avec un tiret pour effectuer un zoom arrière, ou sur les flèches vertes pour les cartes adjacentes.


METAR-TAF: